ěÝzenÝ letovÚho provozu ╚eskÚ republiky
Letiste: LKNA Aktualizace: 16.04.2024 07:29:39  UTC
 METAR LKNA 16.04. 07:30 ...
METAR LKNA 160730Z 29008KT 9999 BKN039 06/M01 Q1005 NOSIG RMK BLU BLU=
 TAF LKNA 16.04. 05:00 ...
TAF LKNA 160500Z 1606/1706 30010KT CAVOK      TEMPO 1606/1610 SHRA BKN025      TEMPO 1606/1617 27015G25KT      BECMG 1608/1610 BKN030      TEMPO 1620/1706 7000 RA BKN020=